ADDS METAR Data INFO
IDs: Format: Raw Decoded Include TAF

Data at: 1843 UTC 16 Dec 2017

KPEA 161835Z AUTO 25003KT 10SM CLR 10/M04 A2984 RMK AO2 T00951038
KPEA 161815Z AUTO 27004KT 10SM CLR 09/M04 A2985 RMK AO2 T00881038
KPEA 161755Z AUTO 25006KT 10SM CLR 09/M04 A2986 RMK AO2 T00901040 10090 20019
KPEA 161735Z AUTO 25005KT 10SM CLR 08/M03 A2985 RMK AO2 T00841033
KPEA 161715Z AUTO 25008KT 10SM CLR 08/M03 A2986 RMK AO2 T00791035
KPEA 161655Z AUTO 26008KT 10SM CLR 08/M03 A2985 RMK AO2 T00751035
KPEA 161635Z AUTO 25009KT 10SM CLR 07/M03 A2985 RMK AO2 T00691032
KPEA 161615Z AUTO 25008KT 10SM CLR 06/M03 A2984 RMK AO2 T00631035
KPEA 161555Z AUTO 24007KT 10SM CLR 06/M03 A2984 RMK AO2 T00561030
KPEA 161535Z AUTO 24007KT 10SM CLR 05/M03 A2984 RMK AO2 T00461031
KPEA 161515Z AUTO 24008KT 10SM CLR 04/M03 A2983 RMK AO2 T00421033
KPEA 161455Z AUTO 24006KT 10SM CLR 04/M03 A2982 RMK AO2 T00351033
KPEA 161435Z AUTO 25005KT 10SM CLR 03/M03 A2981 RMK AO2 T00311035
KPEA 161415Z AUTO 23004KT 10SM CLR 02/M04 A2980 RMK AO2 T00241036
KPEA 161355Z AUTO 24005KT 10SM CLR 02/M04 A2980 RMK AO2 T00211037
KPEA 161335Z AUTO 23007KT 10SM CLR 02/M04 A2979 RMK AO2 T00191037
KPEA 161315Z AUTO 24006KT 10SM CLR 02/M04 A2979 RMK AO2 T00201037
KPEA 161255Z AUTO 23007KT 10SM CLR 02/M04 A2978 RMK AO2 T00201037
KPEA 161235Z AUTO 23009KT 10SM CLR 02/M04 A2978 RMK AO2 T00221037
KPEA 161215Z AUTO 24006KT 10SM CLR 02/M04 A2977 RMK AO2 T00221037
KPEA 161155Z AUTO 23009KT 10SM CLR 02/M04 A2977 RMK AO2 T00221038 10042 20018
KPEA 161135Z AUTO 23009G14KT 10SM CLR 02/M04 A2976 RMK AO2 T00221038
KPEA 161115Z AUTO 23010KT 10SM CLR 02/M04 A2976 RMK AO2 T00221038
KPEA 161055Z AUTO 23010KT 10SM CLR 03/M04 A2975 RMK AO2 T00251037
KPEA 161035Z AUTO 22011G15KT 10SM CLR 03/M04 A2976 RMK AO2 T00251038
KPEA 161015Z AUTO 22009KT 10SM CLR 03/M04 A2976 RMK AO2 T00271038
KPEA 160955Z AUTO 22010KT 10SM CLR 03/M04 A2976 RMK AO2 T00281040
KPEA 160935Z AUTO 22011KT 10SM CLR 03/M04 A2977 RMK AO2 T00281038
KPEA 160915Z AUTO 22012KT 10SM CLR 03/M04 A2977 RMK AO2 T00271040
KPEA 160855Z AUTO 22010KT 10SM CLR 03/M04 A2977 RMK AO2 T00271040
KPEA 160835Z AUTO 22012KT 10SM CLR 03/M04 A2977 RMK AO2 T00271041
KPEA 160815Z AUTO 21011G14KT 10SM CLR 03/M04 A2977 RMK AO2 T00271041
KPEA 160755Z AUTO 21011KT 10SM CLR 03/M04 A2977 RMK AO2 T00311042
KPEA 160735Z AUTO 21008KT 10SM CLR 03/M04 A2977 RMK AO2 T00341042
KPEA 160715Z AUTO 23010G18KT 10SM CLR 04/M04 A2977 RMK AO2 T00401042
KPEA 160655Z AUTO 22011KT 10SM CLR 04/M04 A2977 RMK AO2 T00411041
KPEA 160635Z AUTO 22006KT 10SM CLR 04/M04 A2978 RMK AO2 T00361044
KPEA 160615Z AUTO 22006KT 10SM CLR 03/M04 A2979 RMK AO2 T00321045
KPEA 160555Z AUTO 20003KT 10SM CLR 02/M05 A2979 RMK AO2 T00161050 10042 20012
KPEA 160535Z AUTO 19004KT 10SM CLR 02/M05 A2980 RMK AO2 T00161051
KPEA 160515Z AUTO 20006KT 10SM CLR 02/M05 A2980 RMK AO2 T00221051
KPEA 160455Z AUTO 19006KT 10SM CLR 02/M05 A2981 RMK AO2 T00161053 400721035
KPEA 160435Z AUTO 20006KT 10SM CLR 02/M05 A2981 RMK AO2 T00201055
KPEA 160415Z AUTO 20007KT 10SM CLR 02/M06 A2981 RMK AO2 T00201056
KPEA 160355Z AUTO 20007KT 10SM CLR 02/M06 A2982 RMK AO2 T00201057
KPEA 160335Z AUTO 20007KT 10SM CLR 02/M06 A2983 RMK AO2 T00221058
KPEA 160315Z AUTO 20008KT 10SM CLR 03/M06 A2983 RMK AO2 T00271060
KPEA 160255Z AUTO 20007KT 10SM CLR 03/M06 A2984 RMK AO2 T00341060
KPEA 160235Z AUTO 21009KT 10SM CLR 04/M06 A2984 RMK AO2 T00361058
KPEA 160215Z AUTO 21008KT 10SM SCT110 04/M06 A2985 RMK AO2 T00411059
KPEA 160155Z AUTO 21009KT 10SM CLR 04/M06 A2986 RMK AO2 T00411060
KPEA 160135Z AUTO 20007KT 10SM SCT100 04/M06 A2986 RMK AO2 T00381060
KPEA 160115Z AUTO 21008KT 10SM CLR 04/M06 A2987 RMK AO2 T00361060
KPEA 160055Z AUTO 20006KT 10SM CLR 03/M06 A2987 RMK AO2 T00331061
KPEA 160035Z AUTO 20008KT 10SM CLR 03/M06 A2987 RMK AO2 T00311063
KPEA 160015Z AUTO 19006KT 10SM CLR 02/M07 A2988 RMK AO2 T00221066
KPEA 152355Z AUTO 20004KT 10SM CLR 04/M07 A2988 RMK AO2 T00361066 10072 20036
KPEA 152335Z AUTO 21006KT 10SM CLR 04/M07 A2988 RMK AO2 T00421067
KPEA 152315Z AUTO 22007KT 10SM CLR 05/M07 A2989 RMK AO2 T00451067
KPEA 152255Z AUTO 22008KT 10SM CLR 05/M07 A2988 RMK AO2 T00481068
KPEA 152235Z AUTO 23007KT 10SM CLR 06/M07 A2988 RMK AO2 T00551068
KPEA 152215Z AUTO 24013G16KT 10SM CLR 06/M07 A2989 RMK AO2 T00591070
KPEA 152155Z AUTO 25009G14KT 10SM CLR 06/M07 A2990 RMK AO2 T00611066
KPEA 152135Z AUTO 24008G16KT 10SM CLR 07/M07 A2990 RMK AO2 T00671067
KPEA 152115Z AUTO 25010G21KT 10SM CLR 07/M07 A2990 RMK AO2 T00691067
KPEA 152055Z AUTO 26012G20KT 10SM CLR 07/M06 A2991 RMK AO2 T00721064
KPEA 152035Z AUTO 26009G17KT 10SM CLR 07/M06 A2991 RMK AO2 T00691064
KPEA 152015Z AUTO 26015G21KT 10SM CLR 07/M06 A2992 RMK AO2 T00671064
KPEA 151955Z AUTO 27014G18KT 10SM CLR 07/M05 A2992 RMK AO2 T00661055
KPEA 151935Z AUTO 25012G20KT 10SM CLR 06/M06 A2993 RMK AO2 T00581056
KPEA 151915Z AUTO 26010G15KT 10SM CLR 06/M05 A2994 RMK AO2 T00581050
KPEA 151855Z AUTO 27014G24KT 10SM CLR 05/M05 A2995 RMK AO2 T00541050
KPEA 151835Z AUTO 26012G16KT 10SM SCT060 06/M04 A2995 RMK AO2 T00561045
KPEA 151815Z AUTO 27009KT 10SM BKN060 05/M04 A2996 RMK AO2 T00451045
KPEA 151755Z AUTO 25012G16KT 10SM BKN060 04/M04 A2997 RMK AO2 T00381044 10038 21032
KPEA 151735Z AUTO 26009KT 10SM BKN060 03/M04 A2999 RMK AO2 T00321041
KPEA 151715Z AUTO 26008G14KT 10SM SCT060 03/M04 A3000 RMK AO2 T00261039
KPEA 151655Z AUTO 25009KT 10SM SCT060 02/M04 A3000 RMK AO2 T00181040
KPEA 151635Z AUTO 25008KT 10SM SCT060 01/M04 A3001 RMK AO2 T00111041
KPEA 151615Z AUTO 24010KT 10SM BKN060 01/M04 A3001 RMK AO2 T00061041
KPEA 151555Z AUTO 24010KT 10SM BKN060 00/M04 A3001 RMK AO2 T00021043
KPEA 151535Z AUTO 24010KT 10SM BKN060 00/M04 A3001 RMK AO2 T00001045
KPEA 151515Z AUTO 23009KT 10SM BKN060 00/M05 A3001 RMK AO2 T10051046
KPEA 151455Z AUTO 25007KT 10SM OVC050 M01/M05 A3002 RMK AO2 T10101046
KPEA 151435Z AUTO 24008KT 10SM OVC050 M01/M05 A3003 RMK AO2 T10121046
KPEA 151415Z AUTO 24007KT 10SM OVC050 M01/M05 A3003 RMK AO2 T10151046
KPEA 151355Z AUTO 25006KT 10SM OVC050 M02/M04 A3004 RMK AO2 T10181045
KPEA 151335Z AUTO 24005KT 10SM OVC050 M02/M04 A3004 RMK AO2 T10201045
KPEA 151315Z AUTO 25006KT 10SM OVC050 M02/M04 A3004 RMK AO2 T10231045
KPEA 151255Z AUTO 25006KT 10SM OVC050 M02/M05 A3005 RMK AO2 T10251047
KPEA 151235Z AUTO 24006KT 10SM OVC060 M02/M05 A3004 RMK AO2 T10251047
KPEA 151215Z AUTO 24004KT 10SM BKN060 OVC110 M03/M05 A3004 RMK AO2 T10301050
KPEA 151155Z AUTO 25004KT 10SM BKN060 M03/M05 A3004 RMK AO2 T10311050 11003 21035
KPEA 151135Z AUTO 25004KT 10SM CLR M03/M05 A3004 RMK AO2 T10341051
KPEA 151115Z AUTO 25005KT 10SM CLR M03/M06 A3004 RMK AO2 T10331057
KPEA 151055Z AUTO 25004KT 10SM SCT040 SCT070 M03/M05 A3004 RMK AO2 T10301055
KPEA 151035Z AUTO 28006KT 10SM OVC040 M02/M04 A3006 RMK AO2 T10251044
KPEA 151015Z AUTO 30007KT 10SM OVC042 M02/M04 A3007 RMK AO2 T10251042
KPEA 150955Z AUTO 29006KT 10SM BKN044 OVC050 M03/M04 A3007 RMK AO2 T10271041
KPEA 150935Z AUTO 31006KT 10SM SCT012 SCT049 M03/M05 A3007 RMK AO2 T10341047
KPEA 150915Z AUTO 31006KT 10SM SCT014 BKN046 M03/M04 A3008 RMK AO2 T10291045
KPEA 150855Z AUTO 32007KT 10SM SCT016 BKN046 M02/M04 A3008 RMK AO2 T10201038
KPEA 150835Z AUTO 32009G14KT 10SM SCT008 BKN014 BKN029 M02/M04 A3008 RMK AO2 T10201036
KPEA 150815Z AUTO 32011KT 5SM UP SCT009 BKN012 OVC028 M02/M03 A3007 RMK AO2 T10171035
KPEA 150755Z AUTO 32009KT 10SM SCT007 SCT013 BKN026 M01/M04 A3006 RMK AO2 T10151037
KPEA 150735Z AUTO 33008KT 7SM UP SCT007 BKN017 M01/M04 A3006 RMK AO2 T10141036
KPEA 150715Z AUTO 34008KT 10SM BKN019 BKN023 M01/M04 A3006 RMK AO2 T10101039
KPEA 150655Z AUTO 33010KT 10SM SCT019 BKN025 00/M04 A3006 RMK AO2 T10051045